Terminal Aerodrome Forecast
Issued by NWS

Home | Current Version | Previous Version | Text Only | Print | Product List | Glossary On
Versions: 1 2 3 4 5 6 7 8 9 10 11 12 13 14 15 16 17 18 19 20 21 22 23 24 25 26 27 28 29 30 31 32 33 34 35 36 37 38 39 40 41 42 43 44 45 46 47 48 49 50
000
FTUS45 KBOU 242341
TAFBJC
TAF
KBJC 242341Z 2500/2524 05008KT 3SM -DZ BR BKN002 OVC010
      TEMPO 2500/2503 3/4SM -DZ BR VV002
     FM250400 04006KT 3SM BR OVC003
     FM251100 01006KT 2SM BR OVC004
     FM251900 07007KT P6SM BKN015
     FM252300 10006KT P6SM VCSH BKN020=

USA.gov is the U.S. government's official web portal to all federal, state and local government web resources and services.